Time;durP1;ratioP1;P1;durP2;ratioP2;P2;SDS_P1;SDS_P2;PMS_P1;PMS_P2;Temp;Humidity;BMP_temperature;BMP_pressure;BME280_temperature;BME280_humidity;BME280_pressure;Samples;Min_cycle;Max_cycle;Signal;HPM_P1;HPM_P2
2023/10/17 00:02:11;;;;;;;8.40;4.07;;;;;;;;;;4956338;29;20218;-84
2023/10/17 00:04:41;;;;;;;6.97;3.97;;;;;;;;;;4945592;29;20202;-84
2023/10/17 00:07:09;;;;;;;10.37;4.37;;;;;;;;;;4940558;29;20195;-85
2023/10/17 00:09:42;;;;;;;7.30;4.27;;;;;;;;;;4939032;29;20195;-84
2023/10/17 00:17:19;;;;;;;5.77;3.70;;;;;;;;;;4946885;29;20175;-84
2023/10/17 00:19:45;;;;;;;6.90;4.20;;;;;;;;;;4946934;29;20180;-85
2023/10/17 00:22:23;;;;;;;6.93;3.90;;;;;;;;;;4937051;29;20184;-85
2023/10/17 00:24:57;;;;;;;9.00;4.40;;;;;;;;;;4937503;29;20194;-84
2023/10/17 00:27:25;;;;;;;7.30;4.27;;;;;;;;;;4953139;29;20184;-84
2023/10/17 00:29:51;;;;;;;9.80;4.07;;;;;;;;;;4955143;29;20179;-84
2023/10/17 00:32:17;;;;;;;8.00;4.13;;;;;;;;;;4936670;29;20298;-84
2023/10/17 00:34:46;;;;;;;6.67;4.40;;;;;;;;;;4937535;29;20266;-84
2023/10/17 00:37:14;;;;;;;8.40;4.13;;;;;;;;;;4944932;29;20187;-84
2023/10/17 00:39:40;;;;;;;8.03;3.90;;;;;;;;;;4938657;29;20184;-85
2023/10/17 00:42:17;;;;;;;7.83;4.03;;;;;;;;;;4942520;29;20195;-85
2023/10/17 00:44:47;;;;;;;5.77;3.67;;;;;;;;;;4955673;29;20179;-85
2023/10/17 00:47:18;;;;;;;7.40;4.07;;;;;;;;;;4929467;29;20184;-84
2023/10/17 00:49:45;;;;;;;10.47;4.20;;;;;;;;;;4940594;29;20275;-84
2023/10/17 00:52:22;;;;;;;8.13;4.20;;;;;;;;;;4936252;29;20224;-85
2023/10/17 00:54:50;;;;;;;6.23;4.00;;;;;;;;;;4942932;29;20191;-87
2023/10/17 00:57:19;;;;;;;9.73;4.40;;;;;;;;;;4952468;29;20421;-87
2023/10/17 00:59:53;;;;;;;8.18;4.38;;;;;;;;;;4948249;29;20468;-87
2023/10/17 01:02:23;;;;;;;10.20;4.07;;;;;;;;;;4948013;29;20266;-86
2023/10/17 01:04:52;;;;;;;9.43;4.20;;;;;;;;;;4942280;29;20180;-87
2023/10/17 01:07:31;;;;;;;8.70;5.00;;;;;;;;;;4947254;29;20450;-86
2023/10/17 01:10:07;;;;;;;8.65;4.50;;;;;;;;;;4950811;29;20506;-86
2023/10/17 01:12:33;;;;;;;9.25;4.95;;;;;;;;;;4952629;29;20431;-86
2023/10/17 01:15:02;;;;;;;10.32;4.97;;;;;;;;;;4920361;29;20445;-86
2023/10/17 01:17:29;;;;;;;10.20;5.20;;;;;;;;;;4935801;29;20446;-86
2023/10/17 01:19:59;;;;;;;9.45;4.70;;;;;;;;;;4935579;29;20424;-86
2023/10/17 01:22:25;;;;;;;8.80;4.30;;;;;;;;;;4939992;29;20187;-86
2023/10/17 01:24:51;;;;;;;7.45;4.30;;;;;;;;;;4939302;29;20425;-86
2023/10/17 01:27:17;;;;;;;8.37;4.33;;;;;;;;;;4938849;29;20207;-87
2023/10/17 01:29:47;;;;;;;8.20;4.03;;;;;;;;;;4943638;29;20209;-86
2023/10/17 01:32:15;;;;;;;7.30;4.20;;;;;;;;;;4945128;29;20216;-86
2023/10/17 01:34:41;;;;;;;4.77;3.67;;;;;;;;;;4946153;29;20180;-87
2023/10/17 01:37:10;;;;;;;7.77;4.13;;;;;;;;;;4954319;29;20183;-86
2023/10/17 01:39:37;;;;;;;11.27;4.90;;;;;;;;;;4939265;29;20415;-86
2023/10/17 01:42:07;;;;;;;9.17;4.53;;;;;;;;;;4938650;29;20180;-87
2023/10/17 01:44:33;;;;;;;11.43;4.80;;;;;;;;;;4936295;29;20195;-88
2023/10/17 01:47:00;;;;;;;8.73;4.47;;;;;;;;;;4936236;29;20188;-87
2023/10/17 01:49:28;;;;;;;7.53;4.93;;;;;;;;;;4947316;29;20362;-88
2023/10/17 01:51:57;;;;;;;5.40;4.67;;;;;;;;;;4950029;29;20314;-87
2023/10/17 01:54:23;;;;;;;8.20;5.20;;;;;;;;;;4948912;29;20175;-88
2023/10/17 01:56:52;;;;;;;9.13;5.33;;;;;;;;;;4939774;29;20233;-87
2023/10/17 01:59:25;;;;;;;9.03;5.13;;;;;;;;;;4926106;29;20203;-87
2023/10/17 02:01:52;;;;;;;9.73;5.00;;;;;;;;;;4943338;29;20191;-88
2023/10/17 02:04:18;;;;;;;9.25;6.50;;;;;;;;;;4943145;28;20463;-87
2023/10/17 02:06:47;;;;;;;10.00;6.70;;;;;;;;;;4923194;29;20413;-88
2023/10/17 02:09:44;;;;;;;9.38;6.53;;;;;;;;;;4944360;29;20417;-88
2023/10/17 02:12:12;;;;;;;10.18;6.80;;;;;;;;;;4948556;29;20443;-87
2023/10/17 02:14:41;;;;;;;16.37;6.50;;;;;;;;;;4958634;29;20167;-87
2023/10/17 02:17:15;;;;;;;8.37;5.80;;;;;;;;;;4956607;29;20187;-87
2023/10/17 02:19:42;;;;;;;9.50;6.50;;;;;;;;;;4949628;29;20184;-87
2023/10/17 02:22:11;;;;;;;9.80;6.50;;;;;;;;;;4939903;29;20180;-87
2023/10/17 02:24:37;;;;;;;8.47;5.80;;;;;;;;;;4939568;29;20267;-87
2023/10/17 02:27:13;;;;;;;10.37;6.27;;;;;;;;;;4939918;29;20180;-87
2023/10/17 02:29:41;;;;;;;10.73;6.60;;;;;;;;;;4939765;29;20207;-87
2023/10/17 02:32:13;;;;;;;8.60;6.27;;;;;;;;;;4939275;29;20275;-87
2023/10/17 02:34:42;;;;;;;8.20;6.20;;;;;;;;;;4949393;29;20202;-88
2023/10/17 02:37:11;;;;;;;8.50;6.33;;;;;;;;;;4958354;29;20176;-87
2023/10/17 02:39:40;;;;;;;11.27;6.67;;;;;;;;;;4958482;29;20176;-88
2023/10/17 02:42:06;;;;;;;10.57;6.50;;;;;;;;;;4954947;29;20187;-87
2023/10/17 02:44:32;;;;;;;9.00;6.53;;;;;;;;;;4939356;29;20267;-85
2023/10/17 02:46:58;;;;;;;8.63;6.47;;;;;;;;;;4939069;29;20216;-85
2023/10/17 02:49:36;;;;;;;8.67;6.27;;;;;;;;;;4938996;29;20183;-84
2023/10/17 02:52:02;;;;;;;9.63;6.20;;;;;;;;;;4938523;29;20255;-85
2023/10/17 02:54:28;;;;;;;9.40;6.97;;;;;;;;;;4953226;29;20183;-85
2023/10/17 02:56:54;;;;;;;9.60;6.43;;;;;;;;;;4958541;29;20171;-85
2023/10/17 02:59:21;;;;;;;10.53;7.10;;;;;;;;;;4958066;29;20180;-85
2023/10/17 03:01:53;;;;;;;7.73;6.90;;;;;;;;;;4951342;29;20172;-85
2023/10/17 03:04:23;;;;;;;7.33;6.63;;;;;;;;;;4938477;29;20185;-85
2023/10/17 03:06:53;;;;;;;11.60;7.10;;;;;;;;;;4938348;29;20291;-85
2023/10/17 03:17:20;;;;;;;10.27;6.63;;;;;;;;;;4917877;29;20179;-85
2023/10/17 03:19:46;;;;;;;10.77;7.10;;;;;;;;;;4937930;29;20271;-85
2023/10/17 03:22:24;;;;;;;10.27;7.23;;;;;;;;;;4951404;29;20184;-85
2023/10/17 03:27:49;;;;;;;10.47;7.37;;;;;;;;;;4936758;28;20183;-85
2023/10/17 03:30:21;;;;;;;10.57;7.70;;;;;;;;;;4953639;29;20180;-85
2023/10/17 03:33:26;;;;;;;12.70;7.63;;;;;;;;;;4938017;29;20223;-85
2023/10/17 03:35:46;;;;;;;10.43;7.60;;;;;;;;;;4955570;29;20211;-85
2023/10/17 03:38:15;;;;;;;11.57;7.97;;;;;;;;;;4950386;29;20195;-86
2023/10/17 03:40:50;;;;;;;9.93;7.37;;;;;;;;;;4922595;29;20184;-85
2023/10/17 03:43:21;;;;;;;10.77;7.67;;;;;;;;;;4938069;29;20192;-85
2023/10/17 03:45:52;;;;;;;8.40;7.10;;;;;;;;;;4922860;29;20206;-85
2023/10/17 03:48:20;;;;;;;9.13;6.93;;;;;;;;;;4938050;29;20184;-85
2023/10/17 03:50:59;;;;;;;10.07;7.33;;;;;;;;;;4941712;29;20239;-85
2023/10/17 03:53:28;;;;;;;9.77;6.93;;;;;;;;;;4954922;29;20290;-85
2023/10/17 03:55:54;;;;;;;7.90;6.30;;;;;;;;;;4929660;29;20246;-85
2023/10/17 04:00:49;;;;;;;9.53;6.80;;;;;;;;;;4939818;29;20203;-85
2023/10/17 04:03:22;;;;;;;9.10;7.07;;;;;;;;;;4950056;29;20198;-85
2023/10/17 04:05:49;;;;;;;10.87;6.63;;;;;;;;;;4947060;29;20195;-85
2023/10/17 04:08:26;;;;;;;10.13;7.20;;;;;;;;;;4937490;29;20271;-85
2023/10/17 04:13:43;;;;;;;9.90;6.70;;;;;;;;;;4918029;29;20336;-85
2023/10/17 04:16:10;;;;;;;8.40;7.27;;;;;;;;;;4948179;29;20191;-85
2023/10/17 04:18:37;;;;;;;12.00;7.10;;;;;;;;;;4956870;29;20251;-85
2023/10/17 04:21:17;;;;;;;9.80;6.80;;;;;;;;;;4956920;29;20197;-85
2023/10/17 04:23:49;;;;;;;9.33;6.97;;;;;;;;;;4956395;29;20178;-85
2023/10/17 04:26:19;;;;;;;9.27;7.57;;;;;;;;;;4951936;29;20266;-85
2023/10/17 04:28:49;;;;;;;9.50;7.40;;;;;;;;;;4936783;29;20180;-85
2023/10/17 04:31:25;;;;;;;9.97;7.50;;;;;;;;;;4940146;29;20195;-85
2023/10/17 04:33:56;;;;;;;10.03;7.37;;;;;;;;;;4937227;29;20260;-85
2023/10/17 04:36:28;;;;;;;9.83;7.67;;;;;;;;;;4936588;29;20208;-85
2023/10/17 04:39:57;;;;;;;10.30;7.47;;;;;;;;;;4937032;29;20243;-85
2023/10/17 04:44:39;;;;;;;11.40;8.10;;;;;;;;;;4937772;29;20181;-85
2023/10/17 04:49:36;;;;;;;9.97;7.47;;;;;;;;;;4944670;29;20192;-85
2023/10/17 04:52:08;;;;;;;9.77;8.10;;;;;;;;;;4936932;29;20290;-85
2023/10/17 04:57:09;;;;;;;13.70;10.10;;;;;;;;;;4937636;29;20296;-85
2023/10/17 04:59:51;;;;;;;15.60;10.87;;;;;;;;;;4952583;29;20195;-84
2023/10/17 06:19:09;;;;;;;16.53;12.53;;;;;;;;;;4939420;29;20198;-85
2023/10/17 06:21:35;;;;;;;15.07;12.37;;;;;;;;;;4939141;29;20191;-85
2023/10/17 06:26:46;;;;;;;16.63;12.33;;;;;;;;;;4945329;29;20247;-87
2023/10/17 06:34:31;;;;;;;14.67;11.63;;;;;;;;;;4935334;28;20191;-87
2023/10/17 06:37:07;;;;;;;16.00;11.87;;;;;;;;;;4947178;29;20208;-89
2023/10/17 06:39:36;;;;;;;14.80;11.50;;;;;;;;;;4937059;29;20275;-87
2023/10/17 06:42:27;;;;;;;14.80;12.10;;;;;;;;;;4935386;29;20187;-87
2023/10/17 06:45:11;;;;;;;15.93;12.47;;;;;;;;;;4935996;29;20188;-87
2023/10/17 06:47:41;;;;;;;16.33;12.50;;;;;;;;;;4935428;29;20271;-88
2023/10/17 06:52:54;;;;;;;16.93;12.70;;;;;;;;;;4941521;29;20223;-88
2023/10/17 06:55:29;;;;;;;15.83;12.53;;;;;;;;;;4956007;29;20190;-87
2023/10/17 06:58:08;;;;;;;16.07;12.47;;;;;;;;;;4949746;29;20269;-88
2023/10/17 07:00:50;;;;;;;17.53;12.87;;;;;;;;;;4945138;29;20180;-88
2023/10/17 07:03:17;;;;;;;14.07;11.40;;;;;;;;;;4939685;29;20274;-88
2023/10/17 07:05:49;;;;;;;15.60;12.40;;;;;;;;;;4943075;28;20184;-87
2023/10/17 07:08:19;;;;;;;14.13;12.20;;;;;;;;;;4961841;28;20187;-88
2023/10/17 07:16:33;;;;;;;15.40;13.00;;;;;;;;;;4947482;29;20195;-87
2023/10/17 07:22:20;;;;;;;18.23;13.00;;;;;;;;;;4939350;29;20195;-86
2023/10/17 07:24:37;;;;;;;15.20;13.40;;;;;;;;;;4938776;29;20184;-87
2023/10/17 07:27:19;;;;;;;17.87;13.33;;;;;;;;;;4938545;29;20213;-87
2023/10/17 07:29:58;;;;;;;19.33;13.93;;;;;;;;;;4938559;29;20190;-86
2023/10/17 07:32:25;;;;;;;17.77;13.43;;;;;;;;;;4957045;29;20282;-87
2023/10/17 07:34:58;;;;;;;16.37;13.50;;;;;;;;;;4925814;29;20218;-87
2023/10/17 07:37:24;;;;;;;16.70;13.93;;;;;;;;;;4938222;29;20409;-87
2023/10/17 07:42:45;;;;;;;17.52;14.48;;;;;;;;;;4955109;29;20476;-87
2023/10/17 07:45:14;;;;;;;16.73;14.27;;;;;;;;;;4922290;29;20504;-86
2023/10/17 07:47:43;;;;;;;16.23;13.75;;;;;;;;;;4940864;29;20464;-86
2023/10/17 07:50:13;;;;;;;14.13;12.63;;;;;;;;;;4951144;29;20426;-87
2023/10/17 07:52:43;;;;;;;14.00;11.87;;;;;;;;;;4939175;29;20309;-86
2023/10/17 07:57:43;;;;;;;16.10;12.10;;;;;;;;;;4947237;29;20425;-86
2023/10/17 08:00:27;;;;;;;15.43;12.88;;;;;;;;;;4937603;29;20409;-86
2023/10/17 08:03:00;;;;;;;15.80;12.60;;;;;;;;;;4936356;29;20196;-87
2023/10/17 08:05:37;;;;;;;15.05;13.00;;;;;;;;;;4939975;29;20414;-85
2023/10/17 08:08:13;;;;;;;15.65;13.50;;;;;;;;;;4936934;29;20421;-84
2023/10/17 08:10:39;;;;;;;16.52;13.55;;;;;;;;;;4940553;29;20488;-85
2023/10/17 08:13:09;;;;;;;13.10;11.70;;;;;;;;;;4952338;29;20222;-85
2023/10/17 08:15:55;;;;;;;13.30;12.00;;;;;;;;;;4950002;29;20180;-85
2023/10/17 08:18:27;;;;;;;12.53;11.20;;;;;;;;;;4955879;29;20194;-85
2023/10/17 08:23:33;;;;;;;10.73;9.63;;;;;;;;;;4943063;29;20203;-84
2023/10/17 08:26:00;;;;;;;12.98;10.70;;;;;;;;;;4939889;29;20425;-84
2023/10/17 08:28:46;;;;;;;13.23;10.35;;;;;;;;;;4944800;29;20423;-85
2023/10/17 08:34:18;;;;;;;11.93;10.43;;;;;;;;;;4934637;28;20455;-84
2023/10/17 08:36:47;;;;;;;11.52;9.80;;;;;;;;;;4940319;29;20517;-84
2023/10/17 08:41:57;;;;;;;11.95;9.75;;;;;;;;;;4952969;29;20442;-87
2023/10/17 08:44:46;;;;;;;12.43;10.60;;;;;;;;;;4943045;29;20439;-85
2023/10/17 08:47:16;;;;;;;12.35;10.77;;;;;;;;;;4945001;29;20436;-85
2023/10/17 08:49:44;;;;;;;12.27;10.18;;;;;;;;;;4935717;29;20429;-85
2023/10/17 08:52:24;;;;;;;10.98;9.75;;;;;;;;;;4936324;29;20441;-86
2023/10/17 08:54:51;;;;;;;11.83;9.17;;;;;;;;;;4944188;29;20433;-86
2023/10/17 08:57:17;;;;;;;12.02;9.20;;;;;;;;;;4943693;29;20421;-85
2023/10/17 09:05:27;;;;;;;12.10;8.82;;;;;;;;;;4937139;29;20520;-86
2023/10/17 09:07:56;;;;;;;10.30;8.43;;;;;;;;;;4940478;29;20479;-85
2023/10/17 09:10:37;;;;;;;9.45;8.38;;;;;;;;;;4949575;29;20435;-84
2023/10/17 09:15:57;;;;;;;10.20;8.13;;;;;;;;;;4940662;28;20433;-85
2023/10/17 09:18:40;;;;;;;9.73;8.65;;;;;;;;;;4945030;29;20436;-85
2023/10/17 09:21:06;;;;;;;9.68;8.50;;;;;;;;;;4952097;29;20510;-86
2023/10/17 09:23:32;;;;;;;11.32;8.73;;;;;;;;;;4951230;28;20498;-86
2023/10/17 09:26:01;;;;;;;11.95;8.45;;;;;;;;;;4938336;29;20431;-85
2023/10/17 09:28:28;;;;;;;10.38;8.70;;;;;;;;;;4928572;29;20436;-85
2023/10/17 09:31:15;;;;;;;10.15;8.45;;;;;;;;;;4938741;29;20467;-86
2023/10/17 09:33:44;;;;;;;12.10;8.63;;;;;;;;;;4939648;29;20223;-85
2023/10/17 09:36:11;;;;;;;10.13;8.17;;;;;;;;;;4935624;29;20328;-85
2023/10/17 09:38:43;;;;;;;9.52;8.18;;;;;;;;;;4938865;29;20456;-86
2023/10/17 09:41:29;;;;;;;10.07;7.87;;;;;;;;;;5093908;27;20579;-85
2023/10/17 09:43:56;;;;;;;10.13;7.67;;;;;;;;;;5069698;28;20210;-85
2023/10/17 09:46:26;;;;;;;8.03;6.93;;;;;;;;;;5069934;28;20190;-85
2023/10/17 09:48:52;;;;;;;9.73;7.37;;;;;;;;;;5070249;28;20171;-84
2023/10/17 09:51:25;;;;;;;9.27;7.20;;;;;;;;;;5071456;28;20262;-85
2023/10/17 09:54:01;;;;;;;9.63;7.57;;;;;;;;;;5085180;28;20187;-85
2023/10/17 09:56:35;;;;;;;8.67;7.23;;;;;;;;;;5091204;28;20181;-84
2023/10/17 09:59:27;;;;;;;8.20;7.17;;;;;;;;;;5079723;28;20183;-85
2023/10/17 10:01:56;;;;;;;8.33;6.37;;;;;;;;;;5068145;28;20241;-85
2023/10/17 10:04:22;;;;;;;9.10;6.57;;;;;;;;;;5070869;28;20221;-84
2023/10/17 10:06:48;;;;;;;7.37;6.63;;;;;;;;;;5054046;28;20183;-86
2023/10/17 10:09:17;;;;;;;7.23;6.53;;;;;;;;;;5070031;28;20172;-86
2023/10/17 10:11:51;;;;;;;10.23;7.20;;;;;;;;;;5070781;28;20278;-86
2023/10/17 10:14:26;;;;;;;7.73;5.83;;;;;;;;;;5070290;28;20171;-85
2023/10/17 10:16:57;;;;;;;7.07;5.93;;;;;;;;;;5070684;28;20175;-85
2023/10/17 10:19:24;;;;;;;6.67;5.87;;;;;;;;;;5070000;28;20229;-85
2023/10/17 10:22:13;;;;;;;7.70;5.50;;;;;;;;;;5067164;28;20188;-85
2023/10/17 10:24:40;;;;;;;7.30;6.17;;;;;;;;;;5056500;28;20191;-85
2023/10/17 10:27:15;;;;;;;7.23;5.33;;;;;;;;;;5066040;28;20254;-85
2023/10/17 10:29:55;;;;;;;7.47;5.47;;;;;;;;;;5067442;28;20282;-85
2023/10/17 10:32:38;;;;;;;8.70;5.30;;;;;;;;;;5068105;28;20188;-87
2023/10/17 10:35:05;;;;;;;7.15;5.55;;;;;;;;;;5072953;28;20437;-85
2023/10/17 10:37:48;;;;;;;6.73;5.30;;;;;;;;;;5070336;28;20167;-85
2023/10/17 10:40:19;;;;;;;7.17;5.30;;;;;;;;;;5070536;28;20227;-85
2023/10/17 10:42:50;;;;;;;7.50;5.53;;;;;;;;;;5053816;28;20184;-86
2023/10/17 10:45:29;;;;;;;7.30;5.57;;;;;;;;;;5069798;28;20270;-85
2023/10/17 10:47:58;;;;;;;6.88;5.70;;;;;;;;;;5050099;28;20412;-86
2023/10/17 10:50:31;;;;;;;5.43;4.87;;;;;;;;;;5066830;28;20181;-86
2023/10/17 10:52:59;;;;;;;9.30;5.27;;;;;;;;;;5054294;28;20185;-86
2023/10/17 10:55:29;;;;;;;11.43;5.17;;;;;;;;;;5053626;28;20281;-85
2023/10/17 10:57:55;;;;;;;7.13;5.00;;;;;;;;;;5040102;28;20274;-85
2023/10/17 11:00:21;;;;;;;7.67;5.33;;;;;;;;;;5057225;28;20203;-86
2023/10/17 11:02:48;;;;;;;7.93;5.10;;;;;;;;;;5053152;28;20180;-86
2023/10/17 11:05:15;;;;;;;7.93;5.33;;;;;;;;;;5052982;28;20264;-85
2023/10/17 11:07:41;;;;;;;8.40;5.40;;;;;;;;;;5053204;28;20173;-86
2023/10/17 11:10:08;;;;;;;7.60;5.13;;;;;;;;;;5053401;28;20185;-85
2023/10/17 11:12:37;;;;;;;7.90;5.00;;;;;;;;;;5052755;28;20181;-86
2023/10/17 11:15:13;;;;;;;8.13;5.07;;;;;;;;;;5036749;28;20192;-86
2023/10/17 11:17:41;;;;;;;7.60;5.10;;;;;;;;;;5052427;28;20184;-86
2023/10/17 11:20:17;;;;;;;6.43;4.73;;;;;;;;;;5055372;28;20208;-87
2023/10/17 11:22:46;;;;;;;6.37;4.90;;;;;;;;;;5040276;28;20183;-86
2023/10/17 11:25:26;;;;;;;6.43;5.10;;;;;;;;;;5054771;28;20191;-86
2023/10/17 11:27:56;;;;;;;6.37;4.90;;;;;;;;;;5052109;28;20195;-86
2023/10/17 11:30:32;;;;;;;6.77;5.20;;;;;;;;;;5055932;28;20187;-86
2023/10/17 11:33:03;;;;;;;6.10;4.97;;;;;;;;;;5054864;28;20218;-87
2023/10/17 11:35:34;;;;;;;6.20;4.57;;;;;;;;;;5045653;28;20424;-87
2023/10/17 11:38:02;;;;;;;6.53;4.87;;;;;;;;;;5034926;28;20413;-86
2023/10/17 11:40:31;;;;;;;7.45;4.70;;;;;;;;;;5036910;28;20460;-86
2023/10/17 11:42:58;;;;;;;5.27;4.17;;;;;;;;;;5053968;28;20172;-86
2023/10/17 11:45:33;;;;;;;7.53;4.80;;;;;;;;;;5055489;28;20184;-86
2023/10/17 11:48:06;;;;;;;5.33;4.50;;;;;;;;;;5055199;28;20175;-86
2023/10/17 11:50:34;;;;;;;5.47;4.37;;;;;;;;;;5038221;28;20176;-86
2023/10/17 11:53:09;;;;;;;6.33;4.20;;;;;;;;;;5051608;28;20288;-85
2023/10/17 11:55:50;;;;;;;6.73;4.40;;;;;;;;;;5054364;28;20183;-86
2023/10/17 11:58:25;;;;;;;9.37;4.40;;;;;;;;;;5046785;28;20196;-84
2023/10/17 12:00:52;;;;;;;5.30;3.90;;;;;;;;;;5046682;28;20262;-85
2023/10/17 12:03:23;;;;;;;5.00;3.97;;;;;;;;;;5052108;28;20188;-85
2023/10/17 12:05:49;;;;;;;6.40;3.93;;;;;;;;;;5055042;28;20180;-86
2023/10/17 12:08:22;;;;;;;8.03;3.73;;;;;;;;;;5055409;28;20180;-85
2023/10/17 12:11:11;;;;;;;5.60;3.27;;;;;;;;;;5055769;28;20191;-86
2023/10/17 12:13:37;;;;;;;4.50;2.90;;;;;;;;;;5054817;28;20191;-88
2023/10/17 12:16:08;;;;;;;6.10;3.30;;;;;;;;;;5055214;28;20180;-88
2023/10/17 12:18:35;;;;;;;5.60;3.33;;;;;;;;;;5039260;28;20184;-87
2023/10/17 12:21:02;;;;;;;5.77;3.53;;;;;;;;;;5054774;28;20234;-88
2023/10/17 12:23:31;;;;;;;5.80;3.57;;;;;;;;;;5071542;28;20210;-87
2023/10/17 12:26:13;;;;;;;5.03;3.10;;;;;;;;;;5051286;28;20180;-87
2023/10/17 12:28:41;;;;;;;6.07;3.00;;;;;;;;;;5040770;28;20195;-88
2023/10/17 12:31:11;;;;;;;5.17;3.37;;;;;;;;;;5050479;28;20192;-88
2023/10/17 12:33:40;;;;;;;8.00;3.30;;;;;;;;;;5035141;28;20211;-86
2023/10/17 12:36:06;;;;;;;6.27;3.40;;;;;;;;;;5034398;28;20218;-88
2023/10/17 12:38:38;;;;;;;5.87;3.50;;;;;;;;;;5034874;28;20230;-87
2023/10/17 12:41:06;;;;;;;5.67;3.20;;;;;;;;;;5034714;28;20271;-88
2023/10/17 12:43:34;;;;;;;6.80;3.57;;;;;;;;;;5034334;28;20195;-87
2023/10/17 12:46:02;;;;;;;6.27;3.33;;;;;;;;;;5053784;28;20226;-88
2023/10/17 12:48:29;;;;;;;5.37;3.33;;;;;;;;;;5054107;28;20187;-88
2023/10/17 12:50:55;;;;;;;6.07;3.20;;;;;;;;;;5050978;28;20189;-87
2023/10/17 12:53:23;;;;;;;4.23;2.83;;;;;;;;;;5034512;28;20191;-88
2023/10/17 12:55:55;;;;;;;4.07;3.00;;;;;;;;;;5034646;28;20181;-88
2023/10/17 12:58:22;;;;;;;4.93;3.03;;;;;;;;;;5034040;28;20188;-87
2023/10/17 13:00:49;;;;;;;4.67;3.03;;;;;;;;;;5044339;28;20212;-88
2023/10/17 13:03:15;;;;;;;6.03;3.20;;;;;;;;;;5054711;28;20175;-89
2023/10/17 13:05:44;;;;;;;4.93;2.97;;;;;;;;;;5054267;28;20180;-87
2023/10/17 13:08:14;;;;;;;5.60;3.10;;;;;;;;;;5053573;28;20179;-88
2023/10/17 13:10:43;;;;;;;5.23;2.80;;;;;;;;;;5053685;28;20238;-87
2023/10/17 13:13:11;;;;;;;6.07;3.10;;;;;;;;;;5053428;28;20179;-87
2023/10/17 13:15:38;;;;;;;7.50;3.00;;;;;;;;;;5053316;28;20184;-88
2023/10/17 13:18:07;;;;;;;4.33;3.20;;;;;;;;;;5037239;28;20207;-89
2023/10/17 13:20:33;;;;;;;4.30;3.43;;;;;;;;;;5052222;28;20208;-87
2023/10/17 13:23:03;;;;;;;4.73;3.30;;;;;;;;;;5050356;28;20188;-88
2023/10/17 13:25:39;;;;;;;4.17;2.90;;;;;;;;;;5052512;28;20172;-89
2023/10/17 13:28:06;;;;;;;4.37;3.30;;;;;;;;;;5055773;28;20181;-89
2023/10/17 13:30:33;;;;;;;3.93;3.10;;;;;;;;;;5041108;28;20180;-88
2023/10/17 13:33:01;;;;;;;4.57;3.40;;;;;;;;;;5050883;28;20233;-87
2023/10/17 13:35:28;;;;;;;5.50;3.47;;;;;;;;;;5050309;28;20204;-89
2023/10/17 13:37:55;;;;;;;8.07;3.43;;;;;;;;;;5049920;28;20180;-87
2023/10/17 13:40:26;;;;;;;5.10;3.23;;;;;;;;;;5050807;28;20319;-88
2023/10/17 13:42:58;;;;;;;4.93;3.17;;;;;;;;;;5033868;28;20219;-87
2023/10/17 13:45:27;;;;;;;5.87;3.43;;;;;;;;;;5053543;28;20229;-89
2023/10/17 13:47:54;;;;;;;5.03;3.03;;;;;;;;;;5053552;28;20195;-84
2023/10/17 13:50:21;;;;;;;3.97;3.47;;;;;;;;;;5053379;28;20197;-85
2023/10/17 13:52:52;;;;;;;4.80;3.23;;;;;;;;;;5053072;28;20191;-85
2023/10/17 13:55:25;;;;;;;5.10;3.57;;;;;;;;;;5054200;28;20245;-86
2023/10/17 13:58:06;;;;;;;4.50;3.23;;;;;;;;;;5050175;28;20259;-85
2023/10/17 14:00:49;;;;;;;6.00;3.57;;;;;;;;;;5034988;28;20212;-86
2023/10/17 14:03:21;;;;;;;4.97;3.30;;;;;;;;;;5050089;28;20180;-85
2023/10/17 14:05:48;;;;;;;5.53;3.10;;;;;;;;;;5049914;28;20201;-86
2023/10/17 14:08:16;;;;;;;5.07;3.60;;;;;;;;;;5053010;28;20502;-85
2023/10/17 14:10:43;;;;;;;4.57;3.07;;;;;;;;;;5053056;28;20179;-88
2023/10/17 14:13:17;;;;;;;4.43;3.37;;;;;;;;;;5053202;28;20196;-87
2023/10/17 14:15:43;;;;;;;4.10;3.13;;;;;;;;;;5052927;28;20180;-87
2023/10/17 14:18:13;;;;;;;5.17;3.43;;;;;;;;;;5050099;28;20256;-88
2023/10/17 14:20:52;;;;;;;5.43;3.10;;;;;;;;;;5049583;28;20235;-88
2023/10/17 14:23:26;;;;;;;6.00;3.60;;;;;;;;;;5034798;28;20185;-86
2023/10/17 14:26:07;;;;;;;5.43;3.23;;;;;;;;;;5049277;28;20184;-87
2023/10/17 14:28:36;;;;;;;8.97;3.77;;;;;;;;;;5050691;28;20188;-90
2023/10/17 14:31:05;;;;;;;4.10;3.33;;;;;;;;;;5056165;28;20184;-89
2023/10/17 14:33:34;;;;;;;4.93;3.50;;;;;;;;;;5055492;28;20275;-85
2023/10/17 14:36:04;;;;;;;5.38;3.28;;;;;;;;;;5056426;28;20376;-90
2023/10/17 14:38:34;;;;;;;8.00;3.60;;;;;;;;;;5056907;28;20220;-89
2023/10/17 14:41:08;;;;;;;5.53;3.50;;;;;;;;;;5056109;28;20530;-89
2023/10/17 14:43:35;;;;;;;7.63;3.70;;;;;;;;;;5057114;28;20260;-90
2023/10/17 14:46:09;;;;;;;3.60;3.30;;;;;;;;;;5056987;28;20172;-90
2023/10/17 14:48:36;;;;;;;4.83;3.40;;;;;;;;;;5056631;28;20175;-87
2023/10/17 14:51:07;;;;;;;4.43;3.30;;;;;;;;;;5056514;28;20180;-88
2023/10/17 14:53:42;;;;;;;6.33;3.17;;;;;;;;;;5066223;28;20257;-91
2023/10/17 14:56:17;;;;;;;4.30;3.07;;;;;;;;;;5053682;28;20186;-90
2023/10/17 14:58:51;;;;;;;4.87;3.30;;;;;;;;;;5056160;28;20218;-87
2023/10/17 15:01:20;;;;;;;3.27;2.80;;;;;;;;;;5052561;28;20216;-87
2023/10/17 15:03:54;;;;;;;7.70;3.50;;;;;;;;;;5052901;28;20181;-86
2023/10/17 15:06:20;;;;;;;4.93;3.57;;;;;;;;;;5052238;28;20176;-92
2023/10/17 15:11:54;;;;;;;4.53;3.90;;;;;;;;;;5057757;28;20228;-92
2023/10/17 15:14:55;;;;;;;5.63;3.23;;;;;;;;;;5036368;28;20169;-92
2023/10/17 15:17:27;;;;;;;3.90;3.13;;;;;;;;;;5048278;28;20191;-91
2023/10/17 15:19:57;;;;;;;5.17;3.83;;;;;;;;;;5056139;28;20200;-88
2023/10/17 15:22:46;;;;;;;8.13;3.40;;;;;;;;;;5057170;28;20210;-86
2023/10/17 15:25:13;;;;;;;5.07;3.33;;;;;;;;;;5055969;28;20182;-87
2023/10/17 15:27:47;;;;;;;4.85;3.60;;;;;;;;;;5051982;28;20451;-88
2023/10/17 15:30:13;;;;;;;4.73;3.37;;;;;;;;;;5055720;28;20229;-88
2023/10/17 15:32:48;;;;;;;4.63;3.30;;;;;;;;;;5055552;28;20434;-89
2023/10/17 15:35:20;;;;;;;4.67;3.40;;;;;;;;;;5055847;28;20210;-88
2023/10/17 15:37:49;;;;;;;4.00;3.40;;;;;;;;;;5057280;28;20411;-88
2023/10/17 15:40:28;;;;;;;4.40;3.63;;;;;;;;;;5039506;28;20482;-88
2023/10/17 15:42:57;;;;;;;5.70;3.40;;;;;;;;;;5056435;28;20192;-88
2023/10/17 15:45:23;;;;;;;7.13;3.50;;;;;;;;;;5035100;28;20315;-88
2023/10/17 15:47:52;;;;;;;5.53;3.60;;;;;;;;;;5035437;28;20172;-88
2023/10/17 15:50:22;;;;;;;5.30;3.70;;;;;;;;;;5035323;28;20183;-88
2023/10/17 15:52:51;;;;;;;5.88;4.15;;;;;;;;;;5037488;28;20414;-88
2023/10/17 15:55:20;;;;;;;6.22;4.03;;;;;;;;;;5035170;28;20429;-86
2023/10/17 15:57:50;;;;;;;6.07;3.37;;;;;;;;;;5041362;28;20176;-87
2023/10/17 16:00:16;;;;;;;4.27;3.67;;;;;;;;;;5054718;28;20216;-86
2023/10/17 16:02:45;;;;;;;4.80;3.37;;;;;;;;;;5052720;28;20188;-90
2023/10/17 16:05:15;;;;;;;11.40;3.57;;;;;;;;;;5038281;28;20189;-88
2023/10/17 16:07:57;;;;;;;4.37;3.13;;;;;;;;;;5054652;28;20176;-86
2023/10/17 16:10:25;;;;;;;4.65;3.35;;;;;;;;;;5054479;28;20423;-88
2023/10/17 16:13:12;;;;;;;4.72;3.50;;;;;;;;;;5054067;28;20427;-87
2023/10/17 16:15:38;;;;;;;4.95;3.78;;;;;;;;;;5062544;28;20434;-88
2023/10/17 16:18:34;;;;;;;4.20;3.10;;;;;;;;;;5055543;28;20207;-87
2023/10/17 16:21:07;;;;;;;4.63;3.37;;;;;;;;;;5052116;28;20211;-88
2023/10/17 16:24:12;;;;;;;7.03;3.80;;;;;;;;;;5054155;28;20420;-88
2023/10/17 16:26:39;;;;;;;4.53;2.90;;;;;;;;;;5039394;28;20222;-88
2023/10/17 16:29:09;;;;;;;4.93;3.50;;;;;;;;;;5053714;28;20184;-87
2023/10/17 16:31:38;;;;;;;8.05;3.80;;;;;;;;;;5053302;28;20424;-86
2023/10/17 16:34:11;;;;;;;3.60;3.13;;;;;;;;;;5054251;28;20212;-87
2023/10/17 16:36:37;;;;;;;7.43;3.60;;;;;;;;;;5037675;28;20462;-88
2023/10/17 16:39:06;;;;;;;5.17;3.40;;;;;;;;;;5055698;28;20176;-87
2023/10/17 16:41:32;;;;;;;7.27;3.70;;;;;;;;;;5053454;28;20630;-87
2023/10/17 16:44:03;;;;;;;5.80;3.58;;;;;;;;;;5053391;28;20428;-86
2023/10/17 16:46:29;;;;;;;4.97;3.63;;;;;;;;;;5053883;28;20180;-87
2023/10/17 16:49:00;;;;;;;4.57;3.33;;;;;;;;;;5053648;28;20180;-86
2023/10/17 16:55:01;;;;;;;;;;;;;;;;;;;;;
2023/10/17 16:57:48;;;;;;;8.77;3.67;;;;;;;;;;5054943;28;20427;-87
2023/10/17 17:00:16;;;;;;;5.83;3.67;;;;;;;;;;5053950;28;20234;-88
2023/10/17 17:03:37;;;;;;;;;;;;;;;;;;;;;
2023/10/17 17:05:59;;;;;;;6.13;4.10;;;;;;;;;;5055112;28;20430;-87
2023/10/17 17:11:29;;;;;;;7.03;4.00;;;;;;;;;;5046694;28;20418;-87
2023/10/17 17:13:56;;;;;;;4.63;4.00;;;;;;;;;;5053266;28;20186;-87
2023/10/17 17:16:29;;;;;;;5.13;3.70;;;;;;;;;;5053245;28;20191;-88
2023/10/17 17:18:56;;;;;;;6.95;4.50;;;;;;;;;;5033896;28;20432;-88
2023/10/17 17:21:22;;;;;;;6.33;4.40;;;;;;;;;;5048186;28;20445;-88
2023/10/17 17:23:49;;;;;;;6.57;4.40;;;;;;;;;;5036701;28;20436;-87
2023/10/17 17:29:27;;;;;;;7.28;4.75;;;;;;;;;;5052469;28;20411;-88
2023/10/17 17:32:22;;;;;;;;;;;;;;;;;;;;;
2023/10/17 17:35:11;;;;;;;6.50;5.22;;;;;;;;;;5051360;28;20431;-88
2023/10/17 17:38:01;;;;;;;6.60;5.07;;;;;;;;;;5052715;28;20203;-89
2023/10/17 17:40:35;;;;;;;7.10;5.78;;;;;;;;;;5048556;28;20439;-88
2023/10/17 17:43:03;;;;;;;8.57;6.20;;;;;;;;;;5052318;28;20455;-87
2023/10/17 17:45:32;;;;;;;7.50;5.57;;;;;;;;;;5053358;28;20167;-88
2023/10/17 17:48:03;;;;;;;7.80;6.40;;;;;;;;;;5052794;28;20431;-87